createdAt,value
2018-08-24T00:02:21.402Z,21.90
2018-08-24T00:04:50.633Z,21.86
2018-08-24T00:07:19.851Z,21.79
2018-08-24T00:09:51.227Z,21.71
2018-08-24T00:12:20.720Z,21.61
2018-08-24T00:14:49.954Z,21.54
2018-08-24T00:17:24.370Z,21.41
2018-08-24T00:19:53.573Z,21.33
2018-08-24T00:22:22.944Z,21.26
2018-08-24T00:24:52.133Z,21.20
2018-08-24T00:27:21.285Z,21.16
2018-08-24T00:29:50.440Z,21.15
2018-08-24T00:32:19.702Z,21.13
2018-08-24T00:34:48.908Z,21.09
2018-08-24T00:37:18.122Z,21.07
2018-08-24T00:39:47.282Z,21.05
2018-08-24T00:42:16.453Z,21.05
2018-08-24T00:44:45.654Z,21.04
2018-08-24T00:47:14.804Z,21.03
2018-08-24T00:49:43.977Z,20.99
2018-08-24T00:52:13.185Z,20.98
2018-08-24T00:54:42.374Z,20.97
2018-08-24T00:57:11.650Z,20.95
2018-08-24T00:59:40.844Z,20.90
2018-08-24T01:02:10.029Z,20.82
2018-08-24T01:04:39.225Z,20.77
2018-08-24T01:07:14.573Z,20.72
2018-08-24T01:09:43.909Z,20.65
2018-08-24T01:12:14.433Z,20.61
2018-08-24T01:14:47.740Z,20.59
2018-08-24T01:17:22.009Z,20.58
2018-08-24T01:19:51.404Z,20.53
2018-08-24T01:22:22.167Z,20.50
2018-08-24T01:24:51.357Z,20.47
2018-08-24T01:27:20.545Z,20.40
2018-08-24T01:29:49.800Z,20.35
2018-08-24T01:32:18.957Z,20.30
2018-08-24T01:34:48.418Z,20.25
2018-08-24T01:37:17.583Z,20.21
2018-08-24T01:39:46.737Z,20.17
2018-08-24T01:42:15.930Z,20.14
2018-08-24T01:44:45.086Z,20.13
2018-08-24T01:47:14.250Z,20.08
2018-08-24T01:49:43.464Z,20.05
2018-08-24T01:52:12.642Z,20.01
2018-08-24T01:54:41.859Z,19.96
2018-08-24T01:57:11.846Z,19.90
2018-08-24T01:59:41.130Z,19.83
2018-08-24T02:02:10.349Z,19.76
2018-08-24T02:04:39.569Z,19.71
2018-08-24T02:07:08.874Z,19.69
2018-08-24T02:09:38.256Z,19.66
2018-08-24T02:12:11.574Z,19.67
2018-08-24T02:14:40.762Z,19.66
2018-08-24T02:17:15.103Z,19.77
2018-08-24T02:19:49.327Z,19.75
2018-08-24T02:22:19.460Z,19.72
2018-08-24T02:24:48.728Z,19.67
2018-08-24T02:27:19.138Z,19.64
2018-08-24T02:29:50.258Z,19.60
2018-08-24T02:32:22.541Z,19.60
2018-08-24T02:34:51.757Z,19.53
2018-08-24T02:37:20.971Z,19.51
2018-08-24T02:39:50.166Z,19.45
2018-08-24T02:42:19.369Z,19.42
2018-08-24T02:44:48.561Z,19.40
2018-08-24T02:47:18.433Z,19.38
2018-08-24T02:49:47.669Z,19.37
2018-08-24T02:52:16.876Z,19.36
2018-08-24T02:54:46.045Z,19.35
2018-08-24T02:57:15.211Z,19.34
2018-08-24T02:59:44.541Z,19.33
2018-08-24T03:02:13.811Z,19.31
2018-08-24T03:04:43.053Z,19.28
2018-08-24T03:07:12.241Z,19.19
2018-08-24T03:09:41.435Z,19.08
2018-08-24T03:12:10.675Z,18.97
2018-08-24T03:14:39.902Z,18.92
2018-08-24T03:17:14.362Z,18.88
2018-08-24T03:19:43.561Z,18.83
2018-08-24T03:22:12.757Z,18.79
2018-08-24T03:24:42.092Z,18.75
2018-08-24T03:27:11.806Z,18.73
2018-08-24T03:29:41.087Z,18.72
2018-08-24T03:32:10.273Z,18.66
2018-08-24T03:34:40.830Z,18.63
2018-08-24T03:37:10.283Z,18.62
2018-08-24T03:39:39.503Z,18.59
2018-08-24T03:42:09.743Z,18.56
2018-08-24T03:44:39.018Z,18.54
2018-08-24T03:47:08.456Z,18.55
2018-08-24T03:49:37.639Z,18.51
2018-08-24T03:52:06.857Z,18.49
2018-08-24T03:54:36.054Z,18.47
2018-08-24T03:57:05.404Z,18.45
2018-08-24T03:59:34.659Z,18.44
2018-08-24T04:02:05.607Z,18.45
2018-08-24T04:04:34.765Z,18.45
2018-08-24T04:07:04.005Z,18.45
2018-08-24T04:09:33.342Z,18.46
2018-08-24T04:12:02.512Z,18.45
2018-08-24T04:14:31.742Z,18.45
2018-08-24T04:18:04.188Z,18.44
2018-08-24T04:20:33.362Z,18.39
2018-08-24T04:23:02.566Z,18.37
2018-08-24T04:25:31.809Z,18.36
2018-08-24T04:28:01.040Z,18.33
2018-08-24T04:30:30.259Z,18.33
2018-08-24T04:32:59.437Z,18.32
2018-08-24T04:35:28.733Z,18.32
2018-08-24T04:37:57.981Z,18.32
2018-08-24T04:40:27.330Z,18.34
2018-08-24T04:42:56.487Z,18.33
2018-08-24T04:45:25.757Z,18.36
2018-08-24T04:47:54.930Z,18.34
2018-08-24T04:50:24.142Z,18.33
2018-08-24T04:52:53.447Z,18.34
2018-08-24T04:55:22.620Z,18.41
2018-08-24T04:57:51.814Z,18.51
2018-08-24T05:00:20.994Z,18.60
2018-08-24T05:02:50.394Z,18.71
2018-08-24T05:05:19.553Z,18.80
2018-08-24T05:07:48.709Z,18.89
2018-08-24T05:10:17.963Z,18.98
2018-08-24T05:12:47.154Z,19.03
2018-08-24T05:15:16.349Z,19.07
2018-08-24T05:17:45.509Z,19.12
2018-08-24T05:20:14.725Z,19.19
2018-08-24T05:22:44.314Z,19.26
2018-08-24T05:25:13.524Z,19.35
2018-08-24T05:27:42.762Z,19.44
2018-08-24T05:30:11.969Z,19.54
2018-08-24T05:32:41.249Z,19.61
2018-08-24T05:35:11.234Z,19.65
2018-08-24T05:37:40.446Z,19.74
2018-08-24T05:40:09.645Z,19.84
2018-08-24T05:42:38.913Z,19.94
2018-08-24T05:45:08.337Z,20.07
2018-08-24T05:47:37.527Z,20.18
2018-08-24T05:50:07.005Z,20.26
2018-08-24T05:52:36.372Z,20.33
2018-08-24T05:55:05.773Z,20.41
2018-08-24T05:57:35.034Z,20.50
2018-08-24T06:00:04.375Z,20.59
2018-08-24T06:02:33.595Z,20.66
2018-08-24T06:05:02.809Z,20.78
2018-08-24T06:07:32.057Z,20.88
2018-08-24T06:10:01.284Z,21.00
2018-08-24T06:12:30.476Z,21.14
2018-08-24T06:14:59.717Z,21.30
2018-08-24T06:17:34.144Z,21.45
2018-08-24T06:20:03.396Z,21.60
2018-08-24T06:22:32.754Z,21.85
2018-08-24T06:25:01.943Z,22.06
2018-08-24T06:27:31.178Z,22.35
2018-08-24T06:30:00.420Z,22.56
2018-08-24T06:32:29.589Z,22.70
2018-08-24T06:34:59.065Z,22.83
2018-08-24T06:37:28.301Z,22.86
2018-08-24T06:39:58.270Z,22.94
2018-08-24T06:42:27.626Z,22.92
2018-08-24T06:44:56.853Z,22.95
2018-08-24T06:47:26.165Z,23.02
2018-08-24T06:49:55.814Z,23.10
2018-08-24T06:52:25.310Z,23.29
2018-08-24T06:54:54.585Z,23.29
2018-08-24T06:57:23.860Z,23.30
2018-08-24T06:59:53.090Z,23.22
2018-08-24T07:02:22.273Z,23.15
2018-08-24T07:04:51.472Z,23.01
2018-08-24T07:07:20.660Z,22.93
2018-08-24T07:09:49.918Z,22.85
2018-08-24T07:12:19.173Z,22.80
2018-08-24T07:14:48.375Z,22.68
2018-08-24T07:17:22.562Z,22.62
2018-08-24T07:19:51.820Z,22.47
2018-08-24T07:22:21.541Z,22.44
2018-08-24T07:24:50.775Z,22.39
2018-08-24T07:27:20.125Z,22.32
2018-08-24T07:29:49.334Z,22.34
2018-08-24T07:32:18.638Z,22.32
2018-08-24T07:34:47.815Z,22.37
2018-08-24T07:37:17.033Z,22.40
2018-08-24T07:39:46.330Z,22.38
2018-08-24T07:42:15.534Z,22.37
2018-08-24T07:44:50.097Z,22.42
2018-08-24T07:47:19.402Z,22.47
2018-08-24T07:49:48.638Z,22.53
2018-08-24T07:52:17.841Z,22.61
2018-08-24T07:54:47.148Z,22.64
2018-08-24T07:57:16.397Z,22.78
2018-08-24T07:59:45.658Z,22.87
2018-08-24T08:02:14.909Z,22.98
2018-08-24T08:04:44.120Z,23.09
2018-08-24T08:07:13.456Z,23.18
2018-08-24T08:09:42.650Z,23.35
2018-08-24T08:12:11.805Z,23.39
2018-08-24T08:14:45.160Z,23.46
2018-08-24T08:17:14.438Z,23.61
2018-08-24T08:19:43.671Z,23.75
2018-08-24T08:22:12.854Z,23.88
2018-08-24T08:24:42.059Z,24.07
2018-08-24T08:27:11.359Z,24.21
2018-08-24T08:29:45.755Z,24.43
2018-08-24T08:32:14.999Z,24.52
2018-08-24T08:34:53.316Z,24.65
2018-08-24T08:37:27.463Z,24.86
2018-08-24T08:39:59.062Z,24.95
2018-08-24T08:42:29.179Z,24.97
2018-08-24T08:44:58.553Z,25.02
2018-08-24T08:47:27.758Z,24.99
2018-08-24T08:49:57.015Z,25.04
2018-08-24T08:52:26.245Z,25.23
2018-08-24T08:54:55.437Z,25.29
2018-08-24T08:57:24.690Z,25.42
2018-08-24T08:59:53.938Z,25.47
2018-08-24T09:02:23.218Z,25.60
2018-08-24T09:04:52.424Z,25.58
2018-08-24T09:07:21.736Z,25.61
2018-08-24T09:09:51.013Z,25.71
2018-08-24T09:12:20.346Z,25.93
2018-08-24T09:14:49.598Z,26.31
2018-08-24T09:17:24.013Z,26.35
2018-08-24T09:19:58.454Z,26.38
2018-08-24T09:22:32.945Z,26.17
2018-08-24T09:25:07.432Z,26.08
2018-08-24T09:27:44.718Z,26.03
2018-08-24T09:30:14.015Z,25.92
2018-08-24T09:32:43.415Z,25.81
2018-08-24T09:35:12.525Z,25.82
2018-08-24T09:37:41.878Z,25.91
2018-08-24T09:40:11.131Z,25.94
2018-08-24T09:42:40.400Z,25.85
2018-08-24T09:45:09.739Z,25.93
2018-08-24T09:47:44.779Z,25.93
2018-08-24T09:50:19.291Z,26.10
2018-08-24T09:52:54.711Z,26.07
2018-08-24T09:55:26.620Z,25.99
2018-08-24T09:57:55.882Z,26.01
2018-08-24T10:00:29.201Z,25.94
2018-08-24T10:03:03.787Z,25.99
2018-08-24T10:05:38.119Z,26.07
2018-08-24T10:08:12.489Z,26.20
2018-08-24T10:10:41.715Z,26.19
2018-08-24T10:13:11.088Z,26.21
2018-08-24T10:15:40.333Z,26.32
2018-08-24T10:18:09.543Z,26.34
2018-08-24T10:20:38.787Z,26.40
2018-08-24T10:23:08.210Z,26.37
2018-08-24T10:25:37.438Z,26.43
2018-08-24T10:28:06.636Z,26.45
2018-08-24T10:30:35.868Z,26.41
2018-08-24T10:33:05.354Z,26.37
2018-08-24T10:35:34.628Z,26.57
2018-08-24T10:38:03.883Z,26.67
2018-08-24T10:40:33.128Z,26.93
2018-08-24T10:43:02.386Z,26.98
2018-08-24T10:45:31.603Z,27.21
2018-08-24T10:48:00.849Z,27.24
2018-08-24T10:50:30.102Z,27.77
2018-08-24T10:52:59.926Z,28.00
2018-08-24T10:55:29.335Z,28.20
2018-08-24T10:57:58.855Z,27.92
2018-08-24T11:00:28.333Z,27.97
2018-08-24T11:02:57.865Z,27.95
2018-08-24T11:05:27.172Z,27.77
2018-08-24T11:07:56.429Z,27.72
2018-08-24T11:10:25.724Z,27.69
2018-08-24T11:12:54.987Z,27.62
2018-08-24T11:15:24.228Z,27.53
2018-08-24T11:17:59.085Z,27.44
2018-08-24T11:20:28.349Z,27.47
2018-08-24T11:22:57.673Z,27.54
2018-08-24T11:25:27.434Z,27.65
2018-08-24T11:27:56.688Z,27.74
2018-08-24T11:30:25.985Z,27.91
2018-08-24T11:32:55.243Z,27.99
2018-08-24T11:35:24.480Z,28.04
2018-08-24T11:37:53.710Z,28.01
2018-08-24T11:40:23.048Z,27.91
2018-08-24T11:42:52.217Z,28.21
2018-08-24T11:45:21.422Z,28.62
2018-08-24T11:47:50.744Z,28.92
2018-08-24T11:50:20.061Z,29.11
2018-08-24T11:52:49.729Z,29.43
2018-08-24T11:55:18.937Z,29.66
2018-08-24T11:57:48.188Z,29.73
2018-08-24T12:00:17.364Z,29.94
2018-08-24T12:02:46.592Z,30.06
2018-08-24T12:05:15.838Z,30.14
2018-08-24T12:07:45.091Z,30.14
2018-08-24T12:10:14.270Z,29.96
2018-08-24T12:12:43.514Z,29.93
2018-08-24T12:15:12.794Z,29.78
2018-08-24T12:17:42.091Z,29.62
2018-08-24T12:20:11.373Z,29.33
2018-08-24T12:22:40.597Z,29.37
2018-08-24T12:25:09.832Z,29.00
2018-08-24T12:27:39.153Z,28.67
2018-08-24T12:30:08.416Z,28.71
2018-08-24T12:32:37.633Z,28.68
2018-08-24T12:35:07.122Z,28.61
2018-08-24T12:37:41.709Z,28.55
2018-08-24T12:40:10.972Z,28.50
2018-08-24T12:42:40.330Z,28.63
2018-08-24T12:45:09.715Z,28.80
2018-08-24T12:47:39.164Z,28.68
2018-08-24T12:50:08.892Z,28.71
2018-08-24T12:52:38.429Z,29.07
2018-08-24T12:55:07.954Z,29.17
2018-08-24T12:57:37.230Z,29.15
2018-08-24T13:00:06.605Z,29.21
2018-08-24T13:02:35.859Z,29.07
2018-08-24T13:05:05.183Z,29.00
2018-08-24T13:07:34.506Z,28.94
2018-08-24T13:10:03.812Z,28.97
2018-08-24T13:12:33.015Z,29.13
2018-08-24T13:15:02.416Z,29.29
2018-08-24T13:17:31.635Z,29.18
2018-08-24T13:20:00.864Z,28.97
2018-08-24T13:22:30.150Z,28.95
2018-08-24T13:24:59.386Z,28.79
2018-08-24T13:27:28.561Z,28.81
2018-08-24T13:29:57.835Z,28.70
2018-08-24T13:32:27.557Z,28.59
2018-08-24T13:34:56.790Z,28.40
2018-08-24T13:37:25.989Z,28.63
2018-08-24T13:39:55.183Z,28.81
2018-08-24T13:42:24.433Z,28.76
2018-08-24T13:44:53.700Z,28.70
2018-08-24T13:47:22.905Z,28.58
2018-08-24T13:49:52.147Z,28.60
2018-08-24T13:52:21.357Z,28.59
2018-08-24T13:54:50.638Z,28.66
2018-08-24T13:57:19.829Z,28.53
2018-08-24T13:59:49.184Z,28.28
2018-08-24T14:02:18.457Z,28.10
2018-08-24T14:04:47.819Z,27.92
2018-08-24T14:07:17.026Z,27.85
2018-08-24T14:09:46.300Z,27.65
2018-08-24T14:12:15.530Z,27.64
2018-08-24T14:14:44.751Z,27.69
2018-08-24T14:17:13.989Z,28.01
2018-08-24T14:19:43.173Z,28.17
2018-08-24T14:22:12.386Z,28.20
2018-08-24T14:24:41.645Z,28.17
2018-08-24T14:27:11.387Z,28.01
2018-08-24T14:29:41.301Z,27.98
2018-08-24T14:32:10.550Z,28.16
2018-08-24T14:34:39.869Z,28.20
2018-08-24T14:37:09.239Z,28.10
2018-08-24T14:39:38.507Z,28.04
2018-08-24T14:42:08.351Z,27.99
2018-08-24T14:44:37.615Z,27.99
2018-08-24T14:47:07.213Z,27.99
2018-08-24T14:49:36.425Z,27.99
2018-08-24T14:52:05.710Z,27.84
2018-08-24T14:54:34.905Z,27.67
2018-08-24T14:57:04.105Z,27.57
2018-08-24T14:59:33.417Z,27.45
2018-08-24T15:02:02.989Z,27.46
2018-08-24T15:04:32.328Z,27.56
2018-08-24T15:07:02.010Z,27.58
2018-08-24T15:09:31.215Z,27.46
2018-08-24T15:12:00.421Z,27.39
2018-08-24T15:14:29.694Z,27.20
2018-08-24T15:16:59.133Z,27.18
2018-08-24T15:19:28.287Z,27.15
2018-08-24T15:21:57.802Z,27.22
2018-08-24T15:24:27.366Z,27.08
2018-08-24T15:26:56.656Z,27.01
2018-08-24T15:29:25.921Z,26.84
2018-08-24T15:31:55.137Z,26.72
2018-08-24T15:34:24.415Z,26.82
2018-08-24T15:36:53.620Z,26.78
2018-08-24T15:39:22.885Z,26.70
2018-08-24T15:41:52.134Z,26.69
2018-08-24T15:44:21.302Z,26.71
2018-08-24T15:46:50.577Z,26.57
2018-08-24T15:49:19.822Z,26.50
2018-08-24T15:51:49.652Z,26.49
2018-08-24T15:54:18.895Z,26.44
2018-08-24T15:56:48.110Z,26.35
2018-08-24T15:59:17.279Z,26.32
2018-08-24T16:01:46.534Z,26.42
2018-08-24T16:04:15.761Z,26.30
2018-08-24T16:06:44.950Z,26.17
2018-08-24T16:09:14.334Z,26.24
2018-08-24T16:11:43.560Z,26.07
2018-08-24T16:14:12.871Z,25.98
2018-08-24T16:16:42.708Z,25.94
2018-08-24T16:19:13.356Z,25.98
2018-08-24T16:21:43.188Z,25.88
2018-08-24T16:24:12.371Z,25.83
2018-08-24T16:26:41.631Z,25.80
2018-08-24T16:29:11.457Z,25.77
2018-08-24T16:31:40.819Z,25.76
2018-08-24T16:34:10.060Z,25.71
2018-08-24T16:36:39.369Z,25.66
2018-08-24T16:39:09.675Z,25.62
2018-08-24T16:41:39.054Z,25.55
2018-08-24T16:44:08.399Z,25.57
2018-08-24T16:46:37.794Z,25.50
2018-08-24T16:49:07.289Z,25.41
2018-08-24T16:51:36.601Z,25.41
2018-08-24T16:54:06.138Z,25.35
2018-08-24T16:56:35.319Z,25.31
2018-08-24T16:59:04.549Z,25.29
2018-08-24T17:01:34.033Z,25.20
2018-08-24T17:04:03.306Z,25.18
2018-08-24T17:06:32.611Z,24.94
2018-08-24T17:09:01.775Z,24.55
2018-08-24T17:11:31.263Z,24.11
2018-08-24T17:14:01.897Z,23.40
2018-08-24T17:16:31.122Z,23.12
2018-08-24T17:19:00.406Z,22.81
2018-08-24T17:21:29.758Z,22.51
2018-08-24T17:23:59.543Z,22.46
2018-08-24T17:26:32.622Z,22.20
2018-08-24T17:29:01.821Z,22.07
2018-08-24T17:31:31.249Z,22.06
2018-08-24T17:34:00.641Z,21.99
2018-08-24T17:36:29.947Z,21.97
2018-08-24T17:38:59.152Z,21.95
2018-08-24T17:41:28.409Z,21.88
2018-08-24T17:43:57.572Z,21.84
2018-08-24T17:46:26.825Z,21.77
2018-08-24T17:48:56.962Z,21.70
2018-08-24T17:51:26.131Z,21.58
2018-08-24T17:53:55.393Z,21.58
2018-08-24T17:56:25.089Z,21.55
2018-08-24T17:58:54.267Z,21.46
2018-08-24T18:01:23.445Z,21.35
2018-08-24T18:03:53.329Z,21.37
2018-08-24T18:06:22.589Z,21.39
2018-08-24T18:08:51.806Z,21.32
2018-08-24T18:11:21.241Z,21.29
2018-08-24T18:13:50.434Z,21.20
2018-08-24T18:16:19.596Z,21.20
2018-08-24T18:18:48.942Z,21.15
2018-08-24T18:21:18.340Z,21.15
2018-08-24T18:23:47.495Z,21.04
2018-08-24T18:26:16.686Z,21.05
2018-08-24T18:28:46.460Z,20.99
2018-08-24T18:31:15.679Z,21.20
2018-08-24T18:33:44.927Z,21.03
2018-08-24T18:36:14.097Z,20.98
2018-08-24T18:38:43.278Z,20.80
2018-08-24T18:41:12.466Z,20.43
2018-08-24T18:43:41.766Z,20.19
2018-08-24T18:46:10.892Z,20.04
2018-08-24T18:48:40.154Z,20.01
2018-08-24T18:51:09.424Z,19.85
2018-08-24T18:53:38.562Z,19.96
2018-08-24T18:56:07.747Z,19.93
2018-08-24T18:58:36.923Z,19.85
2018-08-24T19:01:06.147Z,19.83
2018-08-24T19:03:36.842Z,19.85
2018-08-24T19:06:06.043Z,19.85
2018-08-24T19:08:35.158Z,19.88
2018-08-24T19:11:09.777Z,19.87
2018-08-24T19:13:38.976Z,19.84
2018-08-24T19:16:08.216Z,19.84
2018-08-24T19:18:42.821Z,19.84
2018-08-24T19:21:17.269Z,19.85
2018-08-24T19:23:46.682Z,19.85
2018-08-24T19:26:16.033Z,19.83
2018-08-24T19:28:50.395Z,19.87
2018-08-24T19:31:19.583Z,19.82
2018-08-24T19:33:48.830Z,19.81
2018-08-24T19:36:18.245Z,19.78
2018-08-24T19:38:47.430Z,19.78
2018-08-24T19:41:21.727Z,19.77
2018-08-24T19:43:50.885Z,19.75
2018-08-24T19:46:20.051Z,19.74
2018-08-24T19:48:54.425Z,19.71
2018-08-24T19:51:23.693Z,19.67
2018-08-24T19:53:53.192Z,19.66
2018-08-24T19:56:22.405Z,19.65
2018-08-24T19:58:56.791Z,19.62
2018-08-24T20:01:26.168Z,19.59
2018-08-24T20:03:55.357Z,19.58
2018-08-24T20:06:29.888Z,19.57
2018-08-24T20:09:04.108Z,19.55
2018-08-24T20:11:34.423Z,19.51
2018-08-24T20:14:03.655Z,19.52
2018-08-24T20:16:38.024Z,19.51
2018-08-24T20:19:07.451Z,19.52
2018-08-24T20:21:36.984Z,19.49
2018-08-24T20:24:06.377Z,19.50
2018-08-24T20:26:35.490Z,19.54
2018-08-24T20:29:04.748Z,19.52
2018-08-24T20:31:34.043Z,19.49
2018-08-24T20:34:03.342Z,19.53
2018-08-24T20:36:32.632Z,19.51
2018-08-24T20:39:01.796Z,19.52
2018-08-24T20:41:30.975Z,19.54
2018-08-24T20:44:00.201Z,19.53
2018-08-24T20:46:29.465Z,19.51
2018-08-24T20:48:58.663Z,19.51
2018-08-24T20:51:27.863Z,19.52
2018-08-24T20:53:57.093Z,19.54
2018-08-24T20:56:26.348Z,19.52
2018-08-24T20:58:55.687Z,19.52
2018-08-24T21:01:24.938Z,19.52
2018-08-24T21:03:54.179Z,19.52
2018-08-24T21:06:23.401Z,19.53
2018-08-24T21:08:52.631Z,19.52
2018-08-24T21:11:21.817Z,19.50
2018-08-24T21:13:51.042Z,19.52
2018-08-24T21:16:20.323Z,19.52
2018-08-24T21:18:51.201Z,19.53
2018-08-24T21:21:20.504Z,19.55
2018-08-24T21:23:49.832Z,19.58
2018-08-24T21:26:18.995Z,19.59
2018-08-24T21:28:48.183Z,19.60
2018-08-24T21:31:17.425Z,19.59
2018-08-24T21:33:46.790Z,19.60
2018-08-24T21:36:16.030Z,19.61
2018-08-24T21:38:45.280Z,19.61
2018-08-24T21:41:14.505Z,19.62
2018-08-24T21:43:43.718Z,19.63
2018-08-24T21:46:13.037Z,19.62
2018-08-24T21:48:42.156Z,19.63
2018-08-24T21:51:11.347Z,19.60
2018-08-24T21:53:40.547Z,19.61
2018-08-24T21:56:09.774Z,19.60
2018-08-24T21:58:39.038Z,19.60
2018-08-24T22:01:08.299Z,19.58
2018-08-24T22:03:37.569Z,19.57
2018-08-24T22:06:06.811Z,19.51
2018-08-24T22:08:36.023Z,19.51
2018-08-24T22:11:05.341Z,19.48
2018-08-24T22:13:34.532Z,19.47
2018-08-24T22:16:03.754Z,19.45
2018-08-24T22:18:33.001Z,19.44
2018-08-24T22:21:02.203Z,19.37
2018-08-24T22:23:31.431Z,19.37
2018-08-24T22:26:00.638Z,19.30
2018-08-24T22:28:29.847Z,19.21
2018-08-24T22:30:59.047Z,19.16
2018-08-24T22:33:28.296Z,19.10
2018-08-24T22:35:57.548Z,19.10
2018-08-24T22:38:26.836Z,19.03
2018-08-24T22:40:56.047Z,19.01
2018-08-24T22:43:30.317Z,18.97
2018-08-24T22:45:59.585Z,18.94
2018-08-24T22:48:28.936Z,18.96
2018-08-24T22:50:58.314Z,18.95
2018-08-24T22:53:27.715Z,18.90
2018-08-24T22:55:56.945Z,18.88
2018-08-24T22:58:26.325Z,18.78
2018-08-24T23:00:55.673Z,18.75
2018-08-24T23:03:25.362Z,18.75
2018-08-24T23:05:54.588Z,18.71
2018-08-24T23:08:23.807Z,18.68
2018-08-24T23:11:00.358Z,18.75
2018-08-24T23:13:29.615Z,18.68
2018-08-24T23:15:58.799Z,18.65
2018-08-24T23:18:28.001Z,18.65
2018-08-24T23:20:57.212Z,18.63
2018-08-24T23:23:26.413Z,18.64
2018-08-24T23:25:55.633Z,18.62
2018-08-24T23:28:24.849Z,18.61
2018-08-24T23:30:54.185Z,18.58
2018-08-24T23:33:23.385Z,18.58
2018-08-24T23:35:52.636Z,18.64
2018-08-24T23:38:21.812Z,18.54
2018-08-24T23:40:51.033Z,18.50
2018-08-24T23:43:20.236Z,18.47
2018-08-24T23:45:49.537Z,18.41
2018-08-24T23:48:18.766Z,18.39
2018-08-24T23:50:48.008Z,18.42
2018-08-24T23:53:17.211Z,18.37
2018-08-24T23:55:46.424Z,18.29
2018-08-24T23:58:15.626Z,18.23
